Weather at Etihad Rail Depot Heliport

Public forecast

Using degrees Celsius for public forecast. Weather courtesy of forecast.io.

Closest aviation weather report (METAR) to Etihad Rail Depot Heliport

Closest report is Al Bateen Executive Airport, 65.6 nm (121.5 km) ENE.

2024/07/22 22:00 (retrieved 43 minutes ago)

OMAD 222200Z 36003KT 310V030 8000 NSC 34/29 Q0996 NOSIG

Closest aviation forecast (TAF) to Etihad Rail Depot Heliport

Closest forecast is Al Bateen Executive Airport, 65.6 nm (121.5 km) ENE.

2024/07/22 18:00 (retrieved 5 hours ago)

TAF OMAD 221700Z 2218/2400 33005KT 8000 NSC BECMG 2220/2222 VRB02KT PROB30 2222/2304 3000 HZ BECMG 2306/2308 33013KT BECMG 2317/2319 20005KT